Vremea mâine în Iernut - Romania

Vrei sa afli care e starea vremii acum in Mures - Romania? Dorim sa iti furnizam starea vremii pentru Mures - Romania. Starea vremii Mures - Romania pentru astazi.

Vremea mâine în Iernut

Temperatura minimă:
8.5 °C

Temperatura maximă:
24.3 °C

Mâine va fi: Patchy rain nearby
Precipitații: 75 %
Umiditate: 66%
Viteza maximă vânt mâine:
7.9 km/h

Evoluția vremii in Iernut pe ore mâine

Ora: 03:00
Temperatura: °C
Sansa de precipitatii: %
Ora Descriere Temp Se simte Precipitatii Umiditate Vant
00:00Senin12°12.2°0%65%SE 4.7 KM/H
01:00Senin11.1°10.8°0%70%ESE 5.4 KM/H
02:00Senin10.2°10°0%75%ESE 5 KM/H
03:00Senin9.6°9.6°0%78%SE 4 KM/H
04:00Senin9.2°8.9°0%80%ESE 4.7 KM/H
05:00Senin8.8°8.7°0%83%SE 4 KM/H
06:00Senin8.5°8.3°0%85%SE 4.3 KM/H
07:00Senin9.6°9.2°0%83%ESE 5.4 KM/H
08:00Senin13.2°13.6°0%75%SE 4.3 KM/H
09:00Senin15.4°15.4°0%68%SSE 5.4 KM/H
10:00Senin17.3°17.4°0%63%S 6.5 KM/H
11:00Senin19.3°19.3°0%58%S 5.8 KM/H
12:00Senin21.1°21.1°0%54%SSE 5.4 KM/H
13:00Senin22.7°24.6°0%49%SW 4.3 KM/H
14:00Senin23.7°24.9°0%46%WSW 2.9 KM/H
15:00Senin24.3°25.1°0%42%W 3.2 KM/H
16:00Senin24.3°24.8°0%37%WSW 5.8 KM/H
17:00Senin24.2°24.7°0%37%SW 5.8 KM/H
18:00Senin23.9°24.9°0%44%SW 7.9 KM/H
19:00Senin21.3°21.4°0%57%SSW 7.2 KM/H
20:00Patchy light rain in area with thunder16°16°100%76%SW 7.9 KM/H
21:00Patchy rain nearby13.9°14.1°100%81%WNW 5.4 KM/H
22:00Patchy rain nearby12.7°12.7°73%84%WNW 1.8 KM/H
23:00Patchy rain nearby11.8°11.8°61%86%S 2.5 KM/H




tutorials